Dryden Regional Airport
CYHD : now visible

Airfield :











YOU CAN JOIN US ON...

 
LOGIN :

Register | Disclaimer

   EN    FR    IT 

 









Legend :    VFR   Marginal VFR   IFR   Intensive IFR   Very Intensive IFR
Visi :
Ceiling :
>= 8 km
>= 3000ft
5 to 8 km
1000 to 3000 ft
1500m to 5 km
500 to 1000 ft
800 to 1500m
200 to 500 ft
< 800m
< 200 ft
Symbols :   Thunderstorms  Fog  Heavy snow  Heavy precipitations  Wind > 20 kt






- Airport Elevation : 1354 ft
- IATA code : YHD


CYHD - Dryden Regional

CURRENT METAR :
  • 061800Z AUTO 17018G23KT 9SM FEW076 BKN100 BKN230 M02/M07 A2959 RMK PRESFR SLP054

EXPIRED METARs :
  • 061700Z AUTO 18014G19KT 9SM SCT130 BKN160 M04/M08 A2965 RMK PRESFR SLP075
  • 061600Z AUTO 17011G17KT 9SM BKN100 BKN120 M06/M09 A2970 RMK SLP093

TAF TAF CYHD
Valid from the 06 at 14:00 until the 07 at 02:00 UTC


061340Z 0614/0702 17010KT P6SM FEW012 BKN120
BECMG 0616/0618 18015G25KT
FM061900 18015G25KT P6SM -SN BKN025 OVC080
TEMPO 0619/0624 2 1/2SM -SN OVC020
FM070000 20012KT 1 1/2SM -SN OVC010
TEMPO 0700/0702 3SM -SN RMK FCST BASED ON AUTO OBS. NXT FCST BY 062000Z
CZWG FIR / North America



MET'MAP, your aeronautical weather chart ! - Copyright ORBIFLY December 2007 - Disclaimer

ORBIFLY MET'MAP TEAM :

Programming & Development : Alexandra Zaïnal
Original concept : Baudouin d'Aumeries
Technical & hardware support : Manuel Goepfert
Assistance : Marc-Olivier Méhu




SOURCES & CREDITS :

   NOAA       Earth
Advisory